Time;durP1;ratioP1;P1;durP2;ratioP2;P2;SDS_P1;SDS_P2;PMS_P1;PMS_P2;Temp;Humidity;BMP_temperature;BMP_pressure;BME280_temperature;BME280_humidity;BME280_pressure;Samples;Min_cycle;Max_cycle;Signal;HPM_P1;HPM_P2
2023/07/21 00:01:18;;;;;;;1.10;1.00;;;20.20;99.90;;;;;;4164710;28;20052;-59
2023/07/21 00:03:18;;;;;;;1.60;1.10;;;20.10;99.90;;;;;;4165548;28;20025;-59
2023/07/21 00:05:19;;;;;;;1.42;0.90;;;20.10;99.90;;;;;;4158670;28;20554;-59
2023/07/21 00:07:20;;;;;;;1.55;1.10;;;20.10;99.90;;;;;;4161853;28;20048;-59
2023/07/21 00:09:20;;;;;;;1.30;1.10;;;20.10;99.90;;;;;;4157858;28;20026;-59
2023/07/21 00:11:21;;;;;;;1.10;1.00;;;20.10;99.90;;;;;;4151308;28;20037;-59
2023/07/21 00:13:21;;;;;;;1.42;1.33;;;20.00;99.90;;;;;;4158779;28;20032;-63
2023/07/21 00:15:22;;;;;;;2.92;1.17;;;20.00;99.90;;;;;;4149616;28;20045;-61
2023/07/21 00:17:23;;;;;;;1.10;1.00;;;20.00;99.90;;;;;;4154164;28;20046;-60
2023/07/21 00:19:23;;;;;;;2.35;0.93;;;19.80;99.90;;;;;;4161442;28;20507;-60
2023/07/21 00:21:24;;;;;;;1.00;0.88;;;19.60;99.90;;;;;;4159226;28;20029;-60
2023/07/21 00:23:26;;;;;;;2.38;1.25;;;19.50;99.90;;;;;;4139421;28;20108;-59
2023/07/21 00:25:27;;;;;;;1.37;1.00;;;19.40;99.90;;;;;;4154662;28;20489;-60
2023/07/21 00:27:27;;;;;;;1.92;1.20;;;19.40;99.90;;;;;;4159127;28;20310;-60
2023/07/21 00:29:29;;;;;;;2.00;1.27;;;19.40;99.90;;;;;;4158956;28;20093;-59
2023/07/21 00:31:31;;;;;;;3.63;1.20;;;19.40;99.90;;;;;;4129372;28;20486;-60
2023/07/21 00:33:31;;;;;;;3.13;1.30;;;19.40;99.90;;;;;;4140492;28;20117;-59
2023/07/21 00:35:33;;;;;;;2.58;1.58;;;19.40;99.90;;;;;;4165906;28;20567;-59
2023/07/21 00:37:34;;;;;;;2.10;1.00;;;19.40;99.90;;;;;;4161600;28;20051;-59
2023/07/21 00:39:34;;;;;;;5.03;1.38;;;19.40;99.90;;;;;;4160521;28;20033;-60
2023/07/21 00:41:35;;;;;;;2.83;1.63;;;19.40;99.90;;;;;;4158728;28;20446;-59
2023/07/21 00:43:36;;;;;;;1.98;1.20;;;19.40;99.90;;;;;;4149427;28;20089;-59
2023/07/21 00:45:39;;;;;;;5.43;1.77;;;19.40;99.90;;;;;;4151797;28;20043;-59
2023/07/21 00:47:41;;;;;;;6.70;1.88;;;19.40;99.90;;;;;;4152465;28;20403;-59
2023/07/21 00:49:43;;;;;;;1.97;1.30;;;19.40;99.90;;;;;;4163387;28;20037;-59
2023/07/21 00:51:44;;;;;;;1.80;1.50;;;19.30;99.90;;;;;;4160854;28;20033;-59
2023/07/21 00:53:45;;;;;;;2.47;1.70;;;19.30;99.90;;;;;;4158847;28;20443;-59
2023/07/21 00:55:47;;;;;;;1.73;1.20;;;19.40;99.90;;;;;;4158739;28;20068;-59
2023/07/21 00:57:48;;;;;;;1.30;1.20;;;19.30;99.90;;;;;;4135898;28;20045;-59
2023/07/21 00:59:49;;;;;;;1.25;1.15;;;19.20;99.90;;;;;;4154587;28;20037;-59
2023/07/21 01:01:50;;;;;;;2.42;1.40;;;19.30;99.90;;;;;;4151733;28;20030;-59
2023/07/21 01:03:51;;;;;;;3.40;1.40;;;19.30;99.90;;;;;;4151495;28;20451;-59
2023/07/21 01:05:53;;;;;;;1.70;1.35;;;19.30;99.90;;;;;;4151990;28;20042;-59
2023/07/21 01:07:54;;;;;;;4.38;1.20;;;19.20;99.90;;;;;;4136996;28;20027;-59
2023/07/21 01:09:55;;;;;;;1.40;1.17;;;19.20;99.90;;;;;;4154900;28;20114;-59
2023/07/21 01:11:57;;;;;;;3.97;1.15;;;19.20;99.90;;;;;;4147714;28;20116;-59
2023/07/21 01:14:02;;;;;;;1.50;1.20;;;19.10;99.90;;;;;;4152151;28;20037;-59
2023/07/21 01:16:04;;;;;;;1.95;1.30;;;19.20;99.90;;;;;;4148651;28;21008;-59
2023/07/21 01:18:07;;;;;;;1.40;1.13;;;19.10;99.90;;;;;;4152259;28;20030;-59
2023/07/21 01:20:08;;;;;;;;;;;19.10;99.90;;;;;;4151315;28;20030;-59
2023/07/21 01:22:20;;;;;;;1.40;1.20;;;19.10;99.90;;;;;;4150723;28;20273;-59
2023/07/21 01:24:46;;;;;;;2.90;1.30;;;19.10;99.90;;;;;;4148197;28;20041;-59
2023/07/21 01:26:49;;;;;;;1.65;1.45;;;19.00;99.90;;;;;;4152195;28;20026;-59
2023/07/21 01:28:49;;;;;;;;;;;19.00;99.90;;;;;;4151701;28;20033;-59
2023/07/21 01:30:53;;;;;;;1.80;1.42;;;19.00;99.90;;;;;;4150004;28;19921;-59
2023/07/21 01:32:54;;;;;;;2.30;1.70;;;18.90;99.90;;;;;;4151017;28;20037;-60
2023/07/21 01:34:56;;;;;;;2.67;1.45;;;18.90;99.90;;;;;;4152380;28;20042;-60
2023/07/21 01:36:59;;;;;;;2.40;1.50;;;18.90;99.90;;;;;;4150083;28;20103;-59
2023/07/21 01:39:00;;;;;;;;;;;18.90;99.90;;;;;;4152272;28;20283;-60
2023/07/21 01:41:02;;;;;;;2.20;1.83;;;18.90;99.90;;;;;;4151171;28;19908;-60
2023/07/21 01:43:03;;;;;;;1.55;1.45;;;18.90;99.90;;;;;;4155243;28;20029;-59
2023/07/21 01:45:04;;;;;;;1.48;1.38;;;18.80;99.90;;;;;;4171613;28;20412;-59
2023/07/21 01:47:05;;;;;;;2.03;1.80;;;18.80;99.90;;;;;;4168728;28;20071;-59
2023/07/21 01:49:06;;;;;;;2.65;1.80;;;18.80;99.90;;;;;;4175828;28;20048;-59
2023/07/21 01:51:07;;;;;;;2.38;1.70;;;18.80;99.90;;;;;;4175252;28;20040;-59
2023/07/21 01:53:13;;;;;;;4.93;1.90;;;18.80;99.90;;;;;;4173882;28;20053;-59
2023/07/21 01:55:22;;;;;;;4.47;1.88;;;18.80;99.90;;;;;;4155995;28;20034;-59
2023/07/21 01:57:32;;;;;;;2.85;1.88;;;18.80;99.90;;;;;;4170962;28;20037;-59
2023/07/21 01:59:33;;;;;;;1.70;1.60;;;18.80;99.90;;;;;;4168285;28;20147;-59
2023/07/21 02:01:35;;;;;;;1.92;1.75;;;18.80;99.90;;;;;;4168681;28;20477;-59
2023/07/21 02:03:37;;;;;;;2.50;2.10;;;18.90;99.90;;;;;;4161357;28;20504;-59
2023/07/21 02:05:37;;;;;;;2.42;1.83;;;18.90;99.90;;;;;;4165598;28;20028;-59
2023/07/21 02:07:38;;;;;;;3.95;2.05;;;18.90;99.90;;;;;;4170232;28;20056;-59
2023/07/21 02:09:38;;;;;;;2.45;2.15;;;18.90;99.90;;;;;;4176329;28;20041;-59
2023/07/21 02:11:40;;;;;;;4.45;2.40;;;19.00;99.90;;;;;;4175775;28;20041;-59
2023/07/21 02:13:41;;;;;;;3.75;2.38;;;19.00;99.90;;;;;;4155846;28;20061;-59
2023/07/21 02:15:42;;;;;;;3.78;2.03;;;19.00;99.90;;;;;;4147009;28;20102;-59
2023/07/21 02:17:42;;;;;;;2.15;1.95;;;19.00;99.90;;;;;;4161450;28;20124;-59
2023/07/21 02:19:43;;;;;;;3.72;2.42;;;19.00;99.90;;;;;;4175348;28;20123;-59
2023/07/21 02:21:43;;;;;;;2.75;2.22;;;19.00;99.90;;;;;;4173480;28;20120;-59
2023/07/21 02:23:44;;;;;;;2.65;1.95;;;19.00;99.90;;;;;;4162921;28;20048;-59
2023/07/21 02:25:45;;;;;;;2.58;1.67;;;19.00;99.90;;;;;;4173135;28;20037;-58
2023/07/21 02:27:45;;;;;;;2.00;1.77;;;19.00;99.90;;;;;;4172158;28;20041;-59
2023/07/21 02:29:49;;;;;;;2.22;1.70;;;19.00;99.90;;;;;;4174793;28;20120;-59
2023/07/21 02:31:49;;;;;;;1.90;1.77;;;18.90;99.90;;;;;;4173740;28;20116;-59
2023/07/21 02:33:50;;;;;;;2.17;1.98;;;18.90;99.90;;;;;;4175784;28;20068;-59
2023/07/21 02:35:50;;;;;;;2.03;1.88;;;18.80;99.90;;;;;;4154598;28;20091;-59
2023/07/21 02:37:51;;;;;;;3.45;2.35;;;18.80;99.90;;;;;;4162225;28;20060;-59
2023/07/21 02:39:52;;;;;;;2.33;2.13;;;18.80;99.90;;;;;;4172667;28;20109;-59
2023/07/21 02:41:52;;;;;;;2.72;2.08;;;18.80;99.90;;;;;;4175136;28;20041;-59
2023/07/21 02:43:53;;;;;;;2.13;1.92;;;18.80;99.90;;;;;;4172055;28;20041;-59
2023/07/21 02:45:54;;;;;;;1.88;1.73;;;18.80;99.90;;;;;;4172068;28;20538;-59
2023/07/21 02:47:54;;;;;;;3.03;1.80;;;18.70;99.90;;;;;;4174578;28;20033;-61
2023/07/21 02:49:55;;;;;;;3.15;1.70;;;18.60;99.90;;;;;;4162696;28;20432;-60
2023/07/21 02:51:56;;;;;;;4.13;1.98;;;18.60;99.90;;;;;;4176573;28;20147;-60
2023/07/21 02:53:56;;;;;;;2.85;2.10;;;18.60;99.90;;;;;;4180137;28;20063;-59
2023/07/21 02:56:00;;;;;;;2.10;1.88;;;18.60;99.90;;;;;;4175068;28;20037;-59
2023/07/21 02:58:01;;;;;;;2.50;2.15;;;18.50;99.90;;;;;;4176528;28;20044;-59
2023/07/21 03:00:03;;;;;;;2.67;2.40;;;18.50;99.90;;;;;;4159368;28;20121;-62
2023/07/21 03:02:05;;;;;;;3.25;2.38;;;18.50;99.90;;;;;;4164109;28;20040;-59
2023/07/21 03:04:06;;;;;;;2.85;2.50;;;18.50;99.90;;;;;;4148228;28;20049;-59
2023/07/21 03:06:07;;;;;;;2.50;2.20;;;18.50;99.90;;;;;;4160174;28;20033;-59
2023/07/21 03:08:08;;;;;;;2.38;2.15;;;18.50;99.90;;;;;;4178468;28;20037;-59
2023/07/21 03:10:11;;;;;;;2.45;2.20;;;18.50;99.90;;;;;;4178281;28;20029;-60
2023/07/21 03:12:12;;;;;;;2.45;2.15;;;18.50;99.90;;;;;;4155918;28;20034;-59
2023/07/21 03:14:12;;;;;;;2.60;2.30;;;18.50;99.90;;;;;;4133664;28;20087;-59
2023/07/21 03:16:13;;;;;;;2.97;2.33;;;18.40;99.90;;;;;;4154581;28;20034;-59
2023/07/21 03:18:14;;;;;;;2.50;2.03;;;18.40;99.90;;;;;;4161941;28;20037;-59
2023/07/21 03:20:15;;;;;;;2.33;2.03;;;18.40;99.90;;;;;;4161997;28;20133;-59
2023/07/21 03:22:16;;;;;;;2.20;2.00;;;18.40;99.90;;;;;;4162915;28;20053;-59
2023/07/21 03:24:16;;;;;;;2.55;2.15;;;18.40;99.90;;;;;;4150087;28;20044;-59
2023/07/21 03:26:17;;;;;;;2.10;1.90;;;18.40;99.90;;;;;;4163689;28;20523;-59
2023/07/21 03:28:17;;;;;;;3.22;1.88;;;18.40;99.90;;;;;;4167882;28;20503;-59
2023/07/21 03:30:18;;;;;;;3.25;2.40;;;18.40;99.90;;;;;;4176028;28;20029;-59
2023/07/21 03:32:18;;;;;;;2.38;1.88;;;18.40;99.90;;;;;;4173717;28;20033;-59
2023/07/21 03:34:21;;;;;;;4.43;2.40;;;18.40;99.90;;;;;;4151811;28;20060;-59
2023/07/21 03:36:21;;;;;;;3.50;2.20;;;18.30;99.90;;;;;;4129776;28;20042;-60
2023/07/21 03:38:22;;;;;;;2.15;1.95;;;18.30;99.90;;;;;;4162598;28;20048;-59
2023/07/21 03:40:22;;;;;;;2.53;2.17;;;18.30;99.90;;;;;;4176307;28;20115;-59
2023/07/21 03:42:23;;;;;;;2.35;2.00;;;18.30;99.90;;;;;;4175245;28;20048;-59
2023/07/21 03:44:24;;;;;;;2.40;1.60;;;18.30;99.90;;;;;;4170057;28;20416;-59
2023/07/21 03:46:24;;;;;;;4.78;2.53;;;18.30;99.90;;;;;;4169860;28;20419;-59
2023/07/21 03:48:26;;;;;;;2.22;2.03;;;18.20;99.90;;;;;;4174664;28;20060;-59
2023/07/21 03:50:28;;;;;;;2.55;2.28;;;18.20;99.90;;;;;;4161546;28;20485;-59
2023/07/21 03:52:29;;;;;;;2.63;2.20;;;18.20;99.90;;;;;;4145163;28;20030;-59
2023/07/21 03:54:30;;;;;;;2.55;2.35;;;18.20;99.90;;;;;;4170813;28;20256;-59
2023/07/21 03:56:30;;;;;;;2.30;2.10;;;18.20;99.90;;;;;;4174868;28;20048;-59
2023/07/21 03:58:31;;;;;;;3.28;2.30;;;18.10;99.90;;;;;;4175411;28;20035;-59
2023/07/21 04:00:32;;;;;;;2.55;2.17;;;18.10;99.90;;;;;;4172864;28;20041;-59
2023/07/21 04:02:32;;;;;;;2.65;2.45;;;18.00;99.90;;;;;;4141521;28;20040;-59
2023/07/21 04:04:33;;;;;;;2.45;2.25;;;18.10;99.90;;;;;;4162776;28;20069;-59
2023/07/21 04:06:34;;;;;;;4.32;2.53;;;18.10;99.90;;;;;;4175892;28;20036;-60
2023/07/21 04:08:35;;;;;;;3.15;2.67;;;18.10;99.90;;;;;;4176444;28;20036;-59
2023/07/21 04:10:40;;;;;;;3.80;2.90;;;18.10;99.90;;;;;;4175056;28;20040;-59
2023/07/21 04:12:41;;;;;;;3.20;2.67;;;18.10;99.90;;;;;;4170963;28;20029;-58
2023/07/21 04:14:41;;;;;;;3.47;2.70;;;18.10;99.90;;;;;;4176169;28;20032;-58
2023/07/21 04:16:42;;;;;;;7.05;3.45;;;18.20;99.90;;;;;;4172732;28;20056;-59
2023/07/21 04:18:43;;;;;;;3.75;2.72;;;18.20;99.90;;;;;;4178487;28;20031;-59
2023/07/21 04:20:43;;;;;;;4.10;3.30;;;18.20;99.90;;;;;;4174178;28;20040;-58
2023/07/21 04:22:44;;;;;;;3.67;3.15;;;18.30;99.90;;;;;;4178231;28;20484;-59
2023/07/21 04:24:46;;;;;;;4.60;3.25;;;18.30;99.90;;;;;;4176984;28;20396;-59
2023/07/21 04:26:46;;;;;;;3.72;3.28;;;18.30;99.90;;;;;;4155889;28;20508;-59
2023/07/21 04:28:47;;;;;;;3.40;3.05;;;18.30;99.90;;;;;;4149063;28;20086;-59
2023/07/21 04:30:53;;;;;;;3.42;3.13;;;18.30;99.90;;;;;;4150670;28;20041;-59
2023/07/21 04:32:54;;;;;;;4.20;3.80;;;18.30;99.90;;;;;;4161151;28;20102;-59
2023/07/21 04:34:55;;;;;;;4.38;3.95;;;18.40;99.90;;;;;;4158488;28;20084;-59
2023/07/21 04:36:55;;;;;;;4.80;4.20;;;18.40;99.90;;;;;;4158376;28;20056;-59
2023/07/21 04:38:56;;;;;;;4.35;3.95;;;18.40;99.90;;;;;;4160465;28;20033;-61
2023/07/21 04:40:57;;;;;;;4.93;4.10;;;18.40;99.90;;;;;;4158106;28;20060;-59
2023/07/21 04:42:58;;;;;;;5.68;4.15;;;18.50;99.90;;;;;;4171622;28;20527;-59
2023/07/21 04:45:02;;;;;;;4.05;3.65;;;18.50;99.90;;;;;;4175430;28;20057;-59
2023/07/21 04:47:06;;;;;;;4.88;4.20;;;18.50;99.90;;;;;;4173623;28;20456;-59
2023/07/21 04:49:07;;;;;;;4.95;4.10;;;18.50;99.90;;;;;;4159254;28;20034;-59
2023/07/21 04:51:07;;;;;;;3.53;3.20;;;18.50;99.90;;;;;;4158026;28;20041;-59
2023/07/21 04:53:09;;;;;;;5.00;4.22;;;18.50;99.90;;;;;;4160614;28;20038;-59
2023/07/21 04:55:10;;;;;;;6.97;3.40;;;18.50;99.90;;;;;;4162164;28;20112;-59
2023/07/21 04:57:11;;;;;;;5.07;3.35;;;18.50;99.90;;;;;;4168970;28;20068;-59
2023/07/21 04:59:11;;;;;;;8.80;4.25;;;18.50;99.90;;;;;;4160730;28;20048;-59
2023/07/21 05:01:15;;;;;;;5.25;3.30;;;18.50;99.90;;;;;;4166310;28;20424;-59
2023/07/21 05:03:16;;;;;;;8.05;3.25;;;18.50;99.90;;;;;;4176090;28;20130;-59
2023/07/21 05:05:16;;;;;;;9.00;3.45;;;18.50;99.90;;;;;;4170049;28;20153;-60
2023/07/21 05:07:17;;;;;;;7.30;3.53;;;18.50;99.90;;;;;;4169046;28;20043;-59
2023/07/21 05:09:19;;;;;;;8.32;4.55;;;18.50;99.90;;;;;;4175477;28;20119;-59
2023/07/21 05:11:20;;;;;;;4.70;4.00;;;18.60;99.90;;;;;;4149597;28;20489;-59
2023/07/21 05:13:21;;;;;;;5.35;4.72;;;18.60;99.90;;;;;;4173559;28;20349;-59
2023/07/21 05:15:22;;;;;;;5.65;5.05;;;18.60;99.90;;;;;;4151431;28;20556;-59
2023/07/21 05:17:23;;;;;;;5.05;4.53;;;18.60;99.90;;;;;;4149657;28;20129;-59
2023/07/21 05:19:24;;;;;;;6.35;5.22;;;18.60;99.90;;;;;;4164507;28;20056;-59
2023/07/21 05:21:24;;;;;;;5.45;4.85;;;18.60;99.90;;;;;;4167641;28;20033;-59
2023/07/21 05:23:25;;;;;;;4.78;4.28;;;18.70;99.90;;;;;;4158263;28;20041;-59
2023/07/21 05:25:25;;;;;;;6.18;5.22;;;18.70;99.90;;;;;;4171430;28;20025;-59
2023/07/21 05:27:27;;;;;;;6.63;5.25;;;18.70;99.90;;;;;;4168483;28;20547;-59
2023/07/21 05:29:28;;;;;;;6.10;5.13;;;18.70;99.90;;;;;;4149679;28;20044;-60
2023/07/21 05:31:28;;;;;;;5.82;4.20;;;18.70;99.90;;;;;;4173737;28;20112;-60
2023/07/21 05:33:29;;;;;;;7.78;5.60;;;18.80;99.90;;;;;;4176135;28;20560;-59
2023/07/21 05:35:30;;;;;;;5.32;4.63;;;18.80;99.90;;;;;;4172558;28;21155;-59
2023/07/21 05:37:30;;;;;;;6.60;5.47;;;18.80;99.90;;;;;;4173552;28;20099;-59
2023/07/21 05:39:31;;;;;;;5.90;5.03;;;18.90;99.90;;;;;;4171307;28;20358;-59
2023/07/21 05:41:32;;;;;;;6.45;5.30;;;19.00;99.90;;;;;;4166798;28;20033;-59
2023/07/21 05:43:33;;;;;;;6.43;5.65;;;19.00;99.90;;;;;;4173015;28;20392;-59
2023/07/21 05:45:37;;;;;;;6.30;4.88;;;19.00;99.90;;;;;;4166300;28;20132;-59
2023/07/21 05:47:38;;;;;;;6.00;5.38;;;19.00;99.90;;;;;;4165664;28;20175;-59
2023/07/21 05:49:39;;;;;;;7.97;5.70;;;19.10;99.90;;;;;;4175864;28;20033;-60
2023/07/21 05:51:39;;;;;;;5.93;5.18;;;19.10;99.90;;;;;;4172310;28;20412;-61
2023/07/21 05:53:40;;;;;;;6.43;5.75;;;19.10;99.90;;;;;;4161639;28;20047;-59
2023/07/21 05:55:42;;;;;;;8.52;6.63;;;19.20;99.90;;;;;;4171264;28;20041;-59
2023/07/21 05:57:43;;;;;;;7.20;5.63;;;19.20;99.90;;;;;;4172755;28;20041;-59
2023/07/21 05:59:45;;;;;;;6.38;5.55;;;19.20;99.90;;;;;;4174970;28;20036;-59
2023/07/21 06:01:45;;;;;;;7.50;5.75;;;19.20;99.90;;;;;;4148562;28;20048;-60
2023/07/21 06:03:46;;;;;;;6.55;5.38;;;19.30;99.90;;;;;;4167523;28;20432;-59
2023/07/21 06:05:48;;;;;;;6.20;5.55;;;19.30;99.90;;;;;;4170314;28;20025;-59
2023/07/21 06:07:49;;;;;;;6.28;5.68;;;19.30;99.90;;;;;;4166702;28;20044;-60
2023/07/21 06:09:50;;;;;;;7.55;6.45;;;19.40;99.90;;;;;;4168553;28;20102;-59
2023/07/21 06:11:51;;;;;;;5.82;5.22;;;19.60;99.90;;;;;;4167532;28;20036;-59
2023/07/21 06:13:51;;;;;;;7.72;5.45;;;19.80;99.90;;;;;;4166725;28;20472;-59
2023/07/21 06:15:52;;;;;;;6.38;5.07;;;20.00;99.90;;;;;;4170387;28;20082;-59
2023/07/21 06:17:52;;;;;;;5.50;4.70;;;20.30;99.90;;;;;;4171694;28;20060;-59
2023/07/21 06:19:53;;;;;;;5.93;4.97;;;20.50;99.90;;;;;;4169148;28;20040;-59
2023/07/21 06:21:54;;;;;;;5.13;4.40;;;20.80;99.90;;;;;;4166898;28;20033;-59
2023/07/21 06:23:54;;;;;;;5.78;4.55;;;21.10;99.90;;;;;;4167822;28;20021;-60
2023/07/21 06:25:55;;;;;;;4.45;3.75;;;21.40;99.90;;;;;;4167101;28;20041;-59
2023/07/21 06:27:57;;;;;;;4.18;3.55;;;21.80;99.90;;;;;;4169530;28;20029;-59
2023/07/21 06:29:57;;;;;;;5.13;4.30;;;22.10;99.90;;;;;;4151086;28;20469;-59
2023/07/21 06:31:58;;;;;;;5.80;3.83;;;22.40;99.90;;;;;;4168955;28;20037;-60
2023/07/21 06:33:59;;;;;;;4.88;3.58;;;22.60;99.90;;;;;;4170691;28;20037;-60
2023/07/21 06:35:59;;;;;;;4.20;3.22;;;22.80;99.90;;;;;;4169539;28;20041;-61
2023/07/21 06:38:00;;;;;;;3.35;3.03;;;23.00;99.90;;;;;;4175228;28;20090;-61
2023/07/21 06:40:02;;;;;;;4.60;3.67;;;23.30;99.90;;;;;;4167496;28;20043;-61
2023/07/21 06:42:04;;;;;;;6.53;3.83;;;23.50;99.90;;;;;;4148417;28;20030;-61
2023/07/21 06:44:04;;;;;;;4.18;3.00;;;23.60;99.90;;;;;;4170680;28;20450;-61
2023/07/21 06:46:05;;;;;;;3.45;2.72;;;23.70;99.90;;;;;;4154071;28;20160;-61
2023/07/21 06:48:06;;;;;;;5.93;4.32;;;23.90;99.90;;;;;;4150345;28;20385;-61
2023/07/21 06:50:07;;;;;;;4.43;3.50;;;23.80;99.90;;;;;;4151944;28;20065;-63
2023/07/21 06:52:09;;;;;;;3.80;3.15;;;23.80;99.90;;;;;;4162528;28;20033;-61
2023/07/21 06:54:09;;;;;;;4.07;3.42;;;23.80;99.90;;;;;;4150098;28;20034;-60
2023/07/21 06:56:12;;;;;;;5.45;4.03;;;23.90;99.90;;;;;;4150223;28;20036;-61
2023/07/21 06:58:12;;;;;;;3.85;3.42;;;23.90;99.00;;;;;;4150030;28;20037;-61
2023/07/21 07:00:14;;;;;;;4.78;3.40;;;23.90;99.90;;;;;;4158721;28;20041;-64
2023/07/21 07:02:15;;;;;;;4.80;3.80;;;23.90;99.90;;;;;;4156505;28;20500;-64
2023/07/21 07:04:16;;;;;;;4.13;3.03;;;23.80;99.40;;;;;;4147817;28;20028;-64
2023/07/21 07:06:17;;;;;;;3.45;3.15;;;23.60;99.60;;;;;;4152417;28;20523;-63
2023/07/21 07:08:17;;;;;;;3.70;2.88;;;23.70;99.40;;;;;;4154518;28;20064;-63
2023/07/21 07:10:19;;;;;;;2.55;2.35;;;23.60;99.40;;;;;;4154269;28;20053;-63
2023/07/21 07:12:20;;;;;;;4.85;3.63;;;23.60;99.90;;;;;;4152399;28;20404;-63
2023/07/21 07:14:20;;;;;;;5.60;3.85;;;23.70;98.90;;;;;;4156803;28;20034;-63
2023/07/21 07:16:21;;;;;;;3.10;2.80;;;23.60;99.10;;;;;;4154440;28;20042;-63
2023/07/21 07:18:21;;;;;;;3.45;2.88;;;23.60;99.90;;;;;;4157140;28;20068;-63
2023/07/21 07:20:22;;;;;;;4.90;3.50;;;23.60;99.80;;;;;;4158338;28;20511;-63
2023/07/21 07:22:22;;;;;;;4.13;3.00;;;23.60;99.30;;;;;;4151483;28;20030;-63
2023/07/21 07:24:23;;;;;;;3.60;2.80;;;23.60;99.90;;;;;;4159224;28;20048;-63
2023/07/21 07:26:24;;;;;;;4.15;2.97;;;23.60;99.90;;;;;;4154092;28;20029;-63
2023/07/21 07:28:24;;;;;;;4.88;3.22;;;23.60;99.90;;;;;;4153245;28;20034;-63
2023/07/21 07:30:25;;;;;;;4.53;3.45;;;23.70;99.90;;;;;;4158687;28;20030;-63
2023/07/21 07:32:26;;;;;;;5.63;4.53;;;23.60;98.60;;;;;;4155668;28;20436;-63
2023/07/21 07:34:26;;;;;;;5.60;2.97;;;23.60;98.50;;;;;;4149255;28;20393;-63
2023/07/21 07:36:27;;;;;;;4.03;3.25;;;23.60;99.90;;;;;;4157609;28;20088;-63
2023/07/21 07:38:28;;;;;;;5.30;3.25;;;23.60;99.00;;;;;;4157716;28;20152;-63
2023/07/21 07:40:29;;;;;;;3.38;2.70;;;23.60;99.90;;;;;;4151912;28;20080;-63
2023/07/21 07:42:29;;;;;;;5.47;3.15;;;23.60;99.90;;;;;;4159608;28;20503;-65
2023/07/21 07:44:30;;;;;;;4.65;3.22;;;23.60;99.50;;;;;;4149661;28;20038;-63
2023/07/21 07:46:30;;;;;;;5.53;4.05;;;23.70;99.10;;;;;;4174669;28;20040;-63
2023/07/21 07:48:33;;;;;;;5.18;2.95;;;23.60;98.10;;;;;;4175041;28;20029;-63
2023/07/21 07:50:41;;;;;;;3.85;2.83;;;23.60;99.50;;;;;;4173883;28;20108;-63
2023/07/21 07:52:42;;;;;;;3.63;3.15;;;23.70;99.40;;;;;;4190801;28;20383;-63
2023/07/21 07:54:43;;;;;;;4.57;3.15;;;23.70;99.90;;;;;;4163429;28;20061;-64
2023/07/21 07:56:46;;;;;;;4.80;2.90;;;23.70;99.90;;;;;;4169699;28;20037;-63
2023/07/21 07:58:47;;;;;;;4.90;2.78;;;23.80;99.90;;;;;;4174274;28;20400;-63
2023/07/21 08:00:47;;;;;;;5.25;3.13;;;23.80;99.70;;;;;;4176483;28;20041;-63
2023/07/21 08:02:48;;;;;;;3.30;2.80;;;23.90;99.90;;;;;;4178468;28;20476;-63
2023/07/21 08:04:49;;;;;;;3.47;2.72;;;23.90;99.70;;;;;;4174826;28;20048;-63
2023/07/21 08:06:49;;;;;;;4.18;3.05;;;23.90;98.60;;;;;;4173698;28;20450;-63
2023/07/21 08:08:50;;;;;;;6.07;3.92;;;23.90;99.70;;;;;;4178133;28;20100;-63
2023/07/21 08:10:51;;;;;;;4.70;2.95;;;23.90;98.30;;;;;;4173981;28;20037;-63
2023/07/21 08:12:51;;;;;;;3.33;2.88;;;23.80;99.60;;;;;;4171256;28;20029;-63
2023/07/21 08:14:53;;;;;;;5.25;2.40;;;23.80;98.20;;;;;;4172727;28;20104;-63
2023/07/21 08:16:54;;;;;;;5.75;3.53;;;23.90;98.90;;;;;;4177338;28;20130;-63
2023/07/21 08:18:56;;;;;;;4.10;2.67;;;23.90;98.70;;;;;;4174945;28;20029;-62
2023/07/21 08:20:56;;;;;;;4.05;2.78;;;23.80;98.80;;;;;;4177152;28;20033;-63
2023/07/21 08:22:57;;;;;;;3.92;3.03;;;23.80;98.50;;;;;;4176932;28;20035;-63
2023/07/21 08:25:00;;;;;;;2.53;2.33;;;23.90;99.20;;;;;;4140787;28;20048;-64
2023/07/21 08:27:02;;;;;;;5.80;3.80;;;23.90;99.90;;;;;;4171845;28;20487;-64
2023/07/21 08:29:07;;;;;;;3.70;2.15;;;24.00;99.60;;;;;;4153833;28;20446;-63
2023/07/21 08:31:09;;;;;;;4.25;3.50;;;24.10;99.60;;;;;;4137413;28;20064;-63
2023/07/21 08:33:09;;;;;;;4.07;2.97;;;24.20;99.70;;;;;;4160887;28;20056;-63
2023/07/21 08:35:10;;;;;;;3.78;2.60;;;24.20;99.50;;;;;;4160816;28;20065;-69
2023/07/21 08:37:11;;;;;;;2.92;2.20;;;24.20;98.80;;;;;;4170442;28;20025;-63
2023/07/21 08:39:12;;;;;;;3.35;3.03;;;24.20;98.50;;;;;;4169717;28;20025;-63
2023/07/21 08:41:16;;;;;;;3.70;3.00;;;24.20;98.30;;;;;;4155960;28;20041;-63
2023/07/21 08:43:17;;;;;;;3.42;3.13;;;24.20;98.40;;;;;;4169857;28;20680;-63
2023/07/21 08:45:22;;;;;;;5.80;3.45;;;24.30;98.30;;;;;;4178812;28;20095;-63
2023/07/21 08:47:23;;;;;;;3.70;2.78;;;24.30;99.00;;;;;;4189352;28;20024;-63
2023/07/21 08:49:23;;;;;;;5.68;3.70;;;24.40;97.70;;;;;;4176913;28;20036;-63
2023/07/21 08:51:24;;;;;;;7.60;5.82;;;24.30;97.30;;;;;;4188989;28;20052;-63
2023/07/21 08:53:26;;;;;;;5.10;3.70;;;24.30;97.30;;;;;;4178762;28;20053;-63
2023/07/21 08:55:26;;;;;;;5.10;3.77;;;24.40;98.20;;;;;;4174849;28;20123;-63
2023/07/21 08:57:27;;;;;;;5.07;3.42;;;24.40;98.00;;;;;;4170353;28;20033;-63
2023/07/21 08:59:28;;;;;;;5.78;4.13;;;24.40;98.00;;;;;;4168230;28;20025;-63
2023/07/21 09:01:29;;;;;;;4.28;3.63;;;24.40;98.10;;;;;;4164693;28;20489;-63
2023/07/21 09:03:30;;;;;;;5.07;3.92;;;24.40;98.30;;;;;;4166932;28;20041;-63
2023/07/21 09:05:31;;;;;;;3.90;3.50;;;24.50;97.80;;;;;;4162825;28;20037;-65
2023/07/21 09:07:34;;;;;;;5.65;3.90;;;24.50;98.90;;;;;;4166819;28;20116;-63
2023/07/21 09:09:35;;;;;;;;;;;24.70;98.50;;;;;;4165848;28;20045;-63
2023/07/21 09:11:36;;;;;;;5.75;4.60;;;24.70;97.00;;;;;;4166999;28;20338;-63
2023/07/21 09:13:36;;;;;;;7.72;4.72;;;24.70;97.20;;;;;;4170110;28;20113;-63
2023/07/21 09:15:38;;;;;;;7.93;5.70;;;24.70;95.40;;;;;;4172036;28;20049;-63
2023/07/21 09:17:43;;;;;;;5.70;4.87;;;24.70;95.60;;;;;;4159596;28;20260;-63
2023/07/21 09:19:45;;;;;;;6.55;4.05;;;24.70;95.10;;;;;;4171775;28;20435;-63
2023/07/21 09:21:54;;;;;;;6.35;4.93;;;24.70;95.90;;;;;;4177081;28;20036;-64
2023/07/21 09:24:05;;;;;;;6.13;5.07;;;24.70;95.50;;;;;;4155539;28;20037;-63
2023/07/21 09:26:06;;;;;;;4.88;4.00;;;24.70;95.20;;;;;;4178721;28;20499;-63
2023/07/21 09:28:06;;;;;;;4.97;4.00;;;24.70;94.00;;;;;;4167496;28;20029;-63
2023/07/21 09:30:07;;;;;;;5.07;3.45;;;24.70;94.00;;;;;;4165784;28;20083;-64
2023/07/21 09:32:18;;;;;;;8.05;5.13;;;24.80;95.30;;;;;;4161890;28;20489;-63
2023/07/21 09:34:19;;;;;;;4.95;3.80;;;24.80;94.50;;;;;;4166810;28;20480;-63
2023/07/21 09:36:22;;;;;;;6.32;4.72;;;24.90;94.10;;;;;;4166073;28;20062;-63
2023/07/21 09:38:23;;;;;;;4.63;3.70;;;24.90;94.40;;;;;;4165370;28;20056;-63
2023/07/21 09:40:30;;;;;;;3.20;2.90;;;24.90;97.10;;;;;;4166612;28;20044;-63
2023/07/21 09:42:34;;;;;;;3.42;2.65;;;25.00;94.10;;;;;;4161894;28;20072;-63
2023/07/21 09:44:35;;;;;;;3.95;2.90;;;25.00;95.10;;;;;;4166664;28;20069;-63
2023/07/21 09:46:37;;;;;;;5.20;3.58;;;24.90;94.20;;;;;;4163412;28;21233;-63
2023/07/21 09:48:38;;;;;;;3.20;2.38;;;24.90;94.50;;;;;;4167318;28;20040;-63
2023/07/21 09:50:40;;;;;;;4.10;3.38;;;24.90;94.10;;;;;;4164840;28;20033;-63
2023/07/21 09:52:46;;;;;;;3.85;2.92;;;24.90;93.10;;;;;;4166049;28;20100;-63
2023/07/21 09:55:04;;;;;;;6.57;3.00;;;24.80;94.10;;;;;;4165837;28;20571;-63
2023/07/21 09:57:06;;;;;;;3.88;2.60;;;24.80;93.30;;;;;;4164922;28;20508;-63
2023/07/21 09:59:10;;;;;;;2.30;2.10;;;24.80;93.40;;;;;;4163707;28;20033;-63
2023/07/21 10:01:12;;;;;;;3.67;2.25;;;24.90;93.10;;;;;;4161946;28;20037;-63
2023/07/21 10:03:13;;;;;;;2.65;2.40;;;24.90;92.40;;;;;;4138130;28;20708;-63
2023/07/21 10:05:14;;;;;;;3.97;2.28;;;24.90;92.10;;;;;;4153896;28;20500;-63
2023/07/21 10:07:16;;;;;;;3.90;2.70;;;24.90;94.10;;;;;;4155731;28;20033;-63
2023/07/21 10:09:17;;;;;;;4.32;3.50;;;24.90;94.40;;;;;;4142650;28;20038;-63
2023/07/21 10:11:17;;;;;;;6.07;3.55;;;24.90;93.20;;;;;;4156095;28;20561;-63
2023/07/21 10:13:19;;;;;;;4.10;3.13;;;24.90;92.40;;;;;;4154982;28;20044;-63
2023/07/21 10:15:29;;;;;;;5.30;3.55;;;24.90;93.70;;;;;;4133370;28;20599;-63
2023/07/21 10:17:43;;;;;;;3.60;2.95;;;24.90;93.40;;;;;;4135363;28;20386;-63
2023/07/21 10:19:44;;;;;;;3.47;2.47;;;25.00;94.50;;;;;;4138457;28;20045;-63
2023/07/21 10:21:53;;;;;;;3.80;2.90;;;25.00;91.80;;;;;;4155180;28;20396;-63
2023/07/21 10:23:54;;;;;;;4.40;3.10;;;25.00;93.20;;;;;;4160526;28;20060;-63
2023/07/21 10:25:58;;;;;;;3.88;2.65;;;25.00;92.40;;;;;;4162467;28;20033;-63
2023/07/21 10:28:03;;;;;;;3.17;2.65;;;25.10;93.50;;;;;;4166340;28;20033;-63
2023/07/21 10:30:21;;;;;;;3.53;2.47;;;25.10;94.70;;;;;;4153191;28;20037;-63
2023/07/21 10:32:22;;;;;;;6.60;2.22;;;25.10;94.30;;;;;;4142705;28;20038;-63
2023/07/21 10:34:46;;;;;;;4.10;2.47;;;25.20;93.20;;;;;;4155527;28;20044;-63